Alberta, Virginia
Current Conditions -  °F | °C
As of 11:15 AM on Thursday 18 Dec 2014 (Local Time) from KLVL Reporting Station
Clear Clear  
Wind Chill: 40°   Ceiling: Unl
Heat Index: 43°   Visibility: 10mi
Dew Point: 29°   Wind: 5mph
Humidity: 58%   Direction: 320°NW
Pressure: 30.16"   Gusts: NA
Location:  36.87°N, 77.89°W
Report Text: KLVL 181615Z AUTO 32004KT 10SM CLR 06/M02 A3016 RMK AO1 T00611016
Loading
Personal Weather Stations






























Interactive Weather Map New forecast layout! Learn more

10-Day Weather Forecast

Advertisements
Track Severe Weather on mobile